Ana Sayfa
METAR-TAF:

METAR-TAF

Havaalanları :

New Haven, Connecticut, Amerika Birleşik Devletleri

Enlem: 41-15-50N, Boylam: 072-53-14W, yükseklik: 4 m

Güncel hava durumu gözlemi

Rapor saat 19:53 UTC de 47 dakika önce yapıldı.
Rüzgar kuzey/kuzeybatıdan 7 kt ve 18 kt'a kadar ani rüzgarlar
Sıcaklık 20°C
Nem 30%
Basınç 1017 hPa
Görüş mesafesi: 16.1 km
7500 ft yükseklikte parçalı çok bulutlu

METAR: KHVN 311953Z 33007G18KT 10SM BKN075 20/02 A3003 RMK AO2 SLP169 T02000022

Saat: 16:40 (20:40 UTC)


TAF: eksik

4.000'den fazla havaalanı için hava durumu gözlemleri ve tahminleri (METAR ve TAF raporları).

Kullanılabilir istasyonlar harita üzerinde sarı ve kırmızı noktalarla gösterilir.

İstasyonun adını görmek için fareyi noktanın üzerinde gezdirin.

Sonrasında hava gözlem ve tahminlerini görmek için tıklayın.

Haritayı değiştirmek için: yaklaştırmak için siyah artı işaretli yeşil düğmeye ve uzaklaştırmak için de eksi işaretli düğmeye hızla tıklayın; bitişik haritalar için yeşil okları kullanın.


METAR-TAF: